createdAt,value
2023-04-03T00:00:21.096Z,62.14
2023-04-03T00:02:48.667Z,63.48
2023-04-03T00:05:16.458Z,62.98
2023-04-03T00:07:43.975Z,63.81
2023-04-03T00:10:12.030Z,64.13
2023-04-03T00:12:39.686Z,63.82
2023-04-03T00:15:08.282Z,63.43
2023-04-03T00:17:37.246Z,63.60
2023-04-03T00:20:05.790Z,63.19
2023-04-03T00:22:33.440Z,63.49
2023-04-03T00:25:01.044Z,64.30
2023-04-03T00:27:28.704Z,63.72
2023-04-03T00:29:56.264Z,64.69
2023-04-03T00:32:23.838Z,64.19
2023-04-03T00:34:52.767Z,63.35
2023-04-03T00:37:20.481Z,62.25
2023-04-03T00:39:48.162Z,61.97
2023-04-03T00:42:15.718Z,62.25
2023-04-03T00:45:20.463Z,63.12
2023-04-03T00:47:48.122Z,64.23
2023-04-03T00:50:17.596Z,63.07
2023-04-03T00:52:47.235Z,64.48
2023-04-03T00:55:15.787Z,64.04
2023-04-03T00:57:44.353Z,65.22
2023-04-03T01:00:14.583Z,65.07
2023-04-03T01:02:42.626Z,63.65
2023-04-03T01:05:12.648Z,63.21
2023-04-03T01:07:42.142Z,63.84
2023-04-03T01:10:14.785Z,64.80
2023-04-03T01:12:46.646Z,63.52
2023-04-03T01:15:18.874Z,65.03
2023-04-03T01:17:48.493Z,64.39
2023-04-03T01:21:09.849Z,64.47
2023-04-03T01:23:50.744Z,65.03
2023-04-03T01:26:18.443Z,64.66
2023-04-03T01:28:46.259Z,65.48
2023-04-03T01:31:21.985Z,66.64
2023-04-03T01:33:51.555Z,66.01
2023-04-03T01:36:23.222Z,66.42
2023-04-03T01:38:50.890Z,64.90
2023-04-03T01:41:19.184Z,65.47
2023-04-03T01:43:48.527Z,65.82
2023-04-03T01:46:16.338Z,65.26
2023-04-03T01:48:44.720Z,65.33
2023-04-03T01:51:14.032Z,63.92
2023-04-03T01:53:41.650Z,65.50
2023-04-03T01:56:09.526Z,65.95
2023-04-03T01:58:37.561Z,67.47
2023-04-03T02:01:05.652Z,66.13
2023-04-03T02:03:33.609Z,65.83
2023-04-03T02:06:01.310Z,66.02
2023-04-03T02:08:30.268Z,66.51
2023-04-03T02:10:57.911Z,65.68
2023-04-03T02:13:25.554Z,64.66
2023-04-03T02:15:53.126Z,64.66
2023-04-03T02:18:20.683Z,64.37
2023-04-03T02:20:49.240Z,66.02
2023-04-03T02:23:16.840Z,65.50
2023-04-03T02:25:46.629Z,65.46
2023-04-03T02:28:14.171Z,66.01
2023-04-03T02:30:41.801Z,64.99
2023-04-03T02:33:09.464Z,65.64
2023-04-03T02:35:37.876Z,66.04
2023-04-03T02:38:05.575Z,66.51
2023-04-03T02:40:33.942Z,67.58
2023-04-03T02:43:02.992Z,66.19
2023-04-03T02:45:30.693Z,65.88
2023-04-03T02:47:58.327Z,66.34
2023-04-03T02:50:25.901Z,66.25
2023-04-03T02:52:53.489Z,66.95
2023-04-03T02:55:21.051Z,66.88
2023-04-03T02:57:51.470Z,66.27
2023-04-03T03:00:21.762Z,66.62
2023-04-03T03:02:51.202Z,67.32
2023-04-03T03:05:19.327Z,67.25
2023-04-03T03:07:47.001Z,66.81
2023-04-03T03:10:14.710Z,67.38
2023-04-03T03:12:42.446Z,68.67
2023-04-03T03:15:10.574Z,68.27
2023-04-03T03:17:39.764Z,68.13
2023-04-03T03:20:08.853Z,68.53
2023-04-03T03:22:36.710Z,68.35
2023-04-03T03:25:06.909Z,68.95
2023-04-03T03:27:34.422Z,67.90
2023-04-03T03:30:02.046Z,67.97
2023-04-03T03:32:29.979Z,69.23
2023-04-03T03:34:58.883Z,68.81
2023-04-03T03:37:27.893Z,70.20
2023-04-03T03:39:55.762Z,70.19
2023-04-03T03:42:23.286Z,69.51
2023-04-03T03:44:52.704Z,69.42
2023-04-03T03:47:21.104Z,70.10
2023-04-03T03:49:48.859Z,69.25
2023-04-03T03:52:18.778Z,69.16
2023-04-03T03:54:46.431Z,69.68
2023-04-03T03:57:14.224Z,70.56
2023-04-03T03:59:42.701Z,69.41
2023-04-03T04:02:10.320Z,68.23
2023-04-03T04:04:37.979Z,69.13
2023-04-03T04:07:06.328Z,70.07
2023-04-03T04:09:36.548Z,69.56
2023-04-03T04:12:04.636Z,69.86
2023-04-03T04:14:33.928Z,68.62
2023-04-03T04:17:03.270Z,70.01
2023-04-03T04:19:31.155Z,69.92
2023-04-03T04:21:58.749Z,69.78
2023-04-03T04:24:26.752Z,70.17
2023-04-03T04:26:57.232Z,70.89
2023-04-03T04:29:26.179Z,71.11
2023-04-03T04:31:54.368Z,69.72
2023-04-03T04:34:23.645Z,69.39
2023-04-03T04:36:51.579Z,68.69
2023-04-03T04:39:19.293Z,69.72
2023-04-03T04:41:47.604Z,69.81
2023-04-03T04:44:16.841Z,69.80
2023-04-03T04:46:44.801Z,70.57
2023-04-03T04:49:12.425Z,70.26
2023-04-03T04:51:50.930Z,70.14
2023-04-03T04:54:23.143Z,68.55
2023-04-03T04:56:51.630Z,69.36
2023-04-03T04:59:21.963Z,69.16
2023-04-03T05:01:50.428Z,68.89
2023-04-03T05:04:19.209Z,68.65
2023-04-03T05:06:50.546Z,68.37
2023-04-03T05:09:23.237Z,68.59
2023-04-03T05:11:52.055Z,69.01
2023-04-03T05:14:25.121Z,67.78
2023-04-03T05:16:54.799Z,68.16
2023-04-03T05:19:25.056Z,68.96
2023-04-03T05:21:52.915Z,67.82
2023-04-03T05:24:20.790Z,68.29
2023-04-03T05:26:48.957Z,72.33
2023-04-03T05:29:17.335Z,69.48
2023-04-03T05:31:46.289Z,70.06
2023-04-03T05:34:15.017Z,69.38
2023-04-03T05:36:44.125Z,69.74
2023-04-03T05:39:13.404Z,68.11
2023-04-03T05:41:44.226Z,68.53
2023-04-03T05:44:11.901Z,69.17
2023-04-03T05:46:39.821Z,68.68
2023-04-03T05:49:11.437Z,67.75
2023-04-03T05:51:40.330Z,67.52
2023-04-03T05:54:27.760Z,68.62
2023-04-03T05:57:02.429Z,69.31
2023-04-03T05:59:30.651Z,68.29
2023-04-03T06:01:59.977Z,68.08
2023-04-03T06:04:29.007Z,67.33
2023-04-03T06:06:59.220Z,66.39
2023-04-03T06:09:29.788Z,67.16
2023-04-03T06:11:59.397Z,67.19
2023-04-03T06:14:27.610Z,68.04
2023-04-03T06:16:55.936Z,66.54
2023-04-03T06:19:24.019Z,66.70
2023-04-03T06:21:57.012Z,66.77
2023-04-03T06:24:26.116Z,66.96
2023-04-03T06:26:54.461Z,67.56
2023-04-03T06:29:22.568Z,65.61
2023-04-03T06:31:50.819Z,65.48
2023-04-03T06:34:18.969Z,65.57
2023-04-03T06:36:47.149Z,65.45
2023-04-03T06:39:18.266Z,66.62
2023-04-03T06:41:46.176Z,65.46
2023-04-03T06:44:16.614Z,65.88
2023-04-03T06:46:46.032Z,66.31
2023-04-03T06:49:13.996Z,67.03
2023-04-03T06:51:41.602Z,66.87
2023-04-03T06:54:09.940Z,67.17
2023-04-03T06:56:38.823Z,67.14
2023-04-03T06:59:06.410Z,66.94
2023-04-03T07:01:34.097Z,68.39
2023-04-03T07:04:01.630Z,66.69
2023-04-03T07:06:29.169Z,68.18
2023-04-03T07:08:57.401Z,67.34
2023-04-03T07:11:25.033Z,67.07
2023-04-03T07:13:54.640Z,66.56
2023-04-03T07:16:22.323Z,65.77
2023-04-03T07:18:50.257Z,67.36
2023-04-03T07:21:17.894Z,66.11
2023-04-03T07:23:45.778Z,66.01
2023-04-03T07:26:13.376Z,65.78
2023-04-03T07:28:42.239Z,65.60
2023-04-03T07:31:14.383Z,66.36
2023-04-03T07:33:42.869Z,66.38
2023-04-03T07:36:12.661Z,65.47
2023-04-03T07:38:40.571Z,65.33
2023-04-03T07:41:08.536Z,66.94
2023-04-03T07:43:36.202Z,66.16
2023-04-03T07:46:06.994Z,66.60
2023-04-03T07:48:36.022Z,66.71
2023-04-03T07:51:05.212Z,66.96
2023-04-03T07:53:33.382Z,65.87
2023-04-03T07:56:03.511Z,65.08
2023-04-03T07:58:31.910Z,65.38
2023-04-03T08:00:59.645Z,65.36
2023-04-03T08:03:27.546Z,66.15
2023-04-03T08:05:56.887Z,64.55
2023-04-03T08:08:25.382Z,66.36
2023-04-03T08:10:54.133Z,65.00
2023-04-03T08:13:23.198Z,65.85
2023-04-03T08:15:51.744Z,64.58
2023-04-03T08:18:19.415Z,62.71
2023-04-03T08:20:47.122Z,64.14
2023-04-03T08:23:17.638Z,62.84
2023-04-03T08:25:47.019Z,61.19
2023-04-03T08:28:14.671Z,59.53
2023-04-03T08:31:34.757Z,59.95
2023-04-03T08:34:02.312Z,61.34
2023-04-03T08:36:31.127Z,60.52
2023-04-03T08:38:59.427Z,59.54
2023-04-03T08:41:33.978Z,58.93
2023-04-03T08:44:12.773Z,57.91
2023-04-03T08:46:55.487Z,58.54
2023-04-03T08:49:28.720Z,57.21
2023-04-03T08:51:57.930Z,56.55
2023-04-03T08:54:32.952Z,58.05
2023-04-03T08:57:06.710Z,56.74
2023-04-03T08:59:36.543Z,55.79
2023-04-03T09:02:25.490Z,57.58
2023-04-03T09:04:53.173Z,57.03
2023-04-03T09:07:27.933Z,56.84
2023-04-03T09:09:57.952Z,55.23
2023-04-03T09:12:30.899Z,56.39
2023-04-03T09:15:08.414Z,54.85
2023-04-03T09:17:47.774Z,54.52
2023-04-03T09:20:24.834Z,54.60
2023-04-03T09:22:53.742Z,54.39
2023-04-03T09:25:24.533Z,55.61
2023-04-03T09:27:53.478Z,53.88
2023-04-03T09:30:24.389Z,54.84
2023-04-03T09:32:55.013Z,53.62
2023-04-03T09:35:32.742Z,53.01
2023-04-03T09:38:21.939Z,53.24
2023-04-03T09:40:52.421Z,51.21
2023-04-03T09:43:28.976Z,51.94
2023-04-03T09:45:58.281Z,52.29
2023-04-03T09:48:29.171Z,51.96
2023-04-03T09:51:00.446Z,52.60
2023-04-03T09:53:34.632Z,52.75
2023-04-03T09:56:04.226Z,52.73
2023-04-03T09:58:46.720Z,51.20
2023-04-03T10:01:27.375Z,51.28
2023-04-03T10:04:11.209Z,51.51
2023-04-03T10:06:44.289Z,51.02
2023-04-03T10:09:21.754Z,51.10
2023-04-03T10:12:05.634Z,50.96
2023-04-03T10:14:33.863Z,50.31
2023-04-03T10:17:12.145Z,50.01
2023-04-03T10:19:45.572Z,50.38
2023-04-03T10:22:20.447Z,49.90
2023-04-03T10:24:56.213Z,49.44
2023-04-03T10:27:34.336Z,48.96
2023-04-03T10:30:10.270Z,49.52
2023-04-03T10:32:54.667Z,49.01
2023-04-03T10:35:39.284Z,46.98
2023-04-03T10:38:17.250Z,46.41
2023-04-03T10:40:53.158Z,46.19
2023-04-03T10:43:31.236Z,46.38
2023-04-03T10:46:04.124Z,44.50
2023-04-03T10:48:45.821Z,45.68
2023-04-03T10:51:28.138Z,44.21
2023-04-03T10:54:02.248Z,44.00
2023-04-03T10:56:37.698Z,44.70
2023-04-03T10:59:18.307Z,43.78
2023-04-03T11:01:49.011Z,43.08
2023-04-03T11:04:20.380Z,43.05
2023-04-03T11:06:54.327Z,43.45
2023-04-03T11:09:27.858Z,42.82
2023-04-03T11:12:00.109Z,43.19
2023-04-03T11:14:29.933Z,44.32
2023-04-03T11:17:07.834Z,43.43
2023-04-03T11:19:41.055Z,43.25
2023-04-03T11:22:20.937Z,42.83
2023-04-03T11:24:58.868Z,42.47
2023-04-03T11:27:31.685Z,43.20
2023-04-03T11:30:00.896Z,42.06
2023-04-03T11:33:02.784Z,42.54
2023-04-03T11:35:31.255Z,43.52
2023-04-03T11:38:03.188Z,43.01
2023-04-03T11:40:33.741Z,44.39
2023-04-03T11:43:08.557Z,43.80
2023-04-03T11:45:51.482Z,44.81
2023-04-03T11:48:54.058Z,43.81
2023-04-03T11:51:43.114Z,44.14
2023-04-03T11:54:46.078Z,42.42
2023-04-03T11:57:47.824Z,42.35
2023-04-03T12:00:48.042Z,42.39
2023-04-03T12:03:52.554Z,42.89
2023-04-03T12:06:59.257Z,41.75
2023-04-03T12:09:46.489Z,42.55
2023-04-03T12:12:29.717Z,42.81
2023-04-03T12:14:57.883Z,42.46
2023-04-03T12:17:30.292Z,42.90
2023-04-03T12:19:58.078Z,44.26
2023-04-03T12:22:25.695Z,44.49
2023-04-03T12:24:54.916Z,43.22
2023-04-03T12:27:27.766Z,43.02
2023-04-03T12:30:02.047Z,43.67
2023-04-03T12:32:49.288Z,43.62
2023-04-03T12:35:26.085Z,43.32
2023-04-03T12:38:26.893Z,42.87
2023-04-03T12:41:00.761Z,42.88
2023-04-03T12:43:42.772Z,43.30
2023-04-03T12:46:17.004Z,43.24
2023-04-03T12:48:52.494Z,44.10
2023-04-03T12:51:23.867Z,43.50
2023-04-03T12:53:58.162Z,44.20
2023-04-03T12:56:27.566Z,43.75
2023-04-03T12:58:58.234Z,43.73
2023-04-03T13:01:28.042Z,43.84
2023-04-03T13:03:58.805Z,43.55
2023-04-03T13:06:29.957Z,43.60
2023-04-03T13:08:59.285Z,43.86
2023-04-03T13:11:28.966Z,43.81
2023-04-03T13:14:00.468Z,42.68
2023-04-03T13:16:28.876Z,43.78
2023-04-03T13:18:57.145Z,44.05
2023-04-03T13:21:28.300Z,43.09
2023-04-03T13:24:07.623Z,44.36
2023-04-03T13:26:40.011Z,42.64
2023-04-03T13:31:56.528Z,41.44
2023-04-03T13:34:27.386Z,42.46
2023-04-03T13:37:00.005Z,42.75
2023-04-03T13:39:29.967Z,41.98
2023-04-03T13:42:02.336Z,42.74
2023-04-03T13:44:35.442Z,41.84
2023-04-03T13:47:17.302Z,43.14
2023-04-03T13:49:46.991Z,40.81
2023-04-03T13:52:25.868Z,43.21
2023-04-03T13:54:56.505Z,42.60
2023-04-03T13:57:24.644Z,42.48
2023-04-03T13:59:53.969Z,41.59
2023-04-03T14:02:25.177Z,41.91
2023-04-03T14:04:59.568Z,41.83
2023-04-03T14:07:27.959Z,42.28
2023-04-03T14:09:55.941Z,41.34
2023-04-03T14:12:31.724Z,41.90
2023-04-03T14:15:03.125Z,42.21
2023-04-03T14:17:31.135Z,42.98
2023-04-03T14:19:59.923Z,42.59
2023-04-03T14:22:30.158Z,42.45
2023-04-03T14:24:58.269Z,41.37
2023-04-03T14:27:29.353Z,41.08
2023-04-03T14:29:58.556Z,40.46
2023-04-03T14:32:28.630Z,39.79
2023-04-03T14:34:57.956Z,40.49
2023-04-03T14:37:27.922Z,41.10
2023-04-03T14:39:56.928Z,41.14
2023-04-03T14:42:27.220Z,41.60
2023-04-03T14:44:55.199Z,42.90
2023-04-03T14:47:31.075Z,42.07
2023-04-03T14:50:01.813Z,41.09
2023-04-03T14:52:32.568Z,40.17
2023-04-03T14:55:01.261Z,45.62
2023-04-03T14:57:30.582Z,45.94
2023-04-03T14:59:58.544Z,39.49
2023-04-03T15:02:31.288Z,41.69
2023-04-03T15:05:01.638Z,33.55
2023-04-03T15:07:31.473Z,30.54
2023-04-03T15:09:59.158Z,31.59
2023-04-03T15:12:26.779Z,38.07
2023-04-03T15:15:01.159Z,32.44
2023-04-03T15:17:30.860Z,32.46
2023-04-03T15:19:58.467Z,38.29
2023-04-03T15:22:27.369Z,33.76
2023-04-03T15:24:55.276Z,34.06
2023-04-03T15:27:23.303Z,32.74
2023-04-03T15:29:50.916Z,28.88
2023-04-03T15:32:18.477Z,33.58
2023-04-03T15:34:46.153Z,25.43
2023-04-03T15:37:13.727Z,24.63
2023-04-03T15:39:42.852Z,25.65
2023-04-03T15:42:10.435Z,26.14
2023-04-03T15:44:38.137Z,27.50
2023-04-03T15:47:06.346Z,28.81
2023-04-03T15:49:34.996Z,30.47
2023-04-03T15:52:02.943Z,30.36
2023-04-03T15:54:31.090Z,28.35
2023-04-03T15:57:00.065Z,25.55
2023-04-03T15:59:29.862Z,25.27
2023-04-03T16:01:57.619Z,23.56
2023-04-03T16:04:25.356Z,22.20
2023-04-03T16:06:53.094Z,20.81
2023-04-03T16:09:20.766Z,19.00
2023-04-03T16:11:48.336Z,19.19
2023-04-03T16:14:17.527Z,20.17
2023-04-03T16:16:45.311Z,21.78
2023-04-03T16:19:13.518Z,23.58
2023-04-03T16:21:41.058Z,23.91
2023-04-03T16:24:08.729Z,24.06
2023-04-03T16:26:36.317Z,25.16
2023-04-03T16:29:03.903Z,25.08
2023-04-03T16:31:34.262Z,26.24
2023-04-03T16:34:02.438Z,28.37
2023-04-03T16:36:30.262Z,29.54
2023-04-03T16:38:57.855Z,29.54
2023-04-03T16:41:25.404Z,30.11
2023-04-03T16:43:53.013Z,29.31
2023-04-03T16:46:20.751Z,26.74
2023-04-03T16:48:49.895Z,24.61
2023-04-03T16:51:17.454Z,22.80
2023-04-03T16:53:44.992Z,22.21
2023-04-03T16:56:12.712Z,21.56
2023-04-03T16:58:40.254Z,20.74
2023-04-03T17:01:12.703Z,19.75
2023-04-03T17:03:40.736Z,20.78
2023-04-03T17:06:15.567Z,21.81
2023-04-03T17:08:43.442Z,21.96
2023-04-03T17:11:12.004Z,21.41
2023-04-03T17:13:39.643Z,21.39
2023-04-03T17:16:10.733Z,21.23
2023-04-03T17:18:39.206Z,20.99
2023-04-03T17:21:07.404Z,21.29
2023-04-03T17:23:38.255Z,21.68
2023-04-03T17:26:06.832Z,21.52
2023-04-03T17:28:34.456Z,22.51
2023-04-03T17:31:03.973Z,23.57
2023-04-03T17:33:32.033Z,25.61
2023-04-03T17:36:01.329Z,26.46
2023-04-03T17:38:30.456Z,27.71
2023-04-03T17:41:00.343Z,29.10
2023-04-03T17:43:28.692Z,29.59
2023-04-03T17:46:03.724Z,30.83
2023-04-03T17:48:32.190Z,32.52
2023-04-03T17:50:59.833Z,34.07
2023-04-03T17:53:27.747Z,34.65
2023-04-03T17:55:55.324Z,34.88
2023-04-03T17:58:24.204Z,36.86
2023-04-03T18:00:52.015Z,37.57
2023-04-03T18:03:19.526Z,37.67
2023-04-03T18:05:47.120Z,37.92
2023-04-03T18:08:14.747Z,38.19
2023-04-03T18:10:42.384Z,39.57
2023-04-03T18:13:10.630Z,40.45
2023-04-03T18:15:45.389Z,41.58
2023-04-03T18:18:13.195Z,41.30
2023-04-03T18:20:40.778Z,41.03
2023-04-03T18:23:08.411Z,41.54
2023-04-03T18:25:37.742Z,41.50
2023-04-03T18:28:06.650Z,41.78
2023-04-03T18:30:35.709Z,42.48
2023-04-03T18:33:04.827Z,42.66
2023-04-03T18:35:32.554Z,42.83
2023-04-03T18:38:00.143Z,42.86
2023-04-03T18:40:27.923Z,43.45
2023-04-03T18:42:55.482Z,43.34
2023-04-03T18:45:24.659Z,43.71
2023-04-03T18:47:52.842Z,43.54
2023-04-03T18:50:21.900Z,43.65
2023-04-03T18:52:50.634Z,43.85
2023-04-03T18:55:18.926Z,44.73
2023-04-03T18:57:46.528Z,45.45
2023-04-03T19:00:15.412Z,44.74
2023-04-03T19:02:43.069Z,45.04
2023-04-03T19:05:13.742Z,44.64
2023-04-03T19:07:44.630Z,44.38
2023-04-03T19:10:17.023Z,45.25
2023-04-03T19:12:46.314Z,45.53
2023-04-03T19:15:14.310Z,45.32
2023-04-03T19:17:41.980Z,47.50
2023-04-03T19:20:11.137Z,47.11
2023-04-03T19:22:39.411Z,46.34
2023-04-03T19:25:09.877Z,45.32
2023-04-03T19:27:38.293Z,46.32
2023-04-03T19:30:07.520Z,47.28
2023-04-03T19:32:35.307Z,47.07
2023-04-03T19:35:03.289Z,51.02
2023-04-03T19:37:30.849Z,52.21
2023-04-03T19:39:58.514Z,53.46
2023-04-03T19:42:29.852Z,51.66
2023-04-03T19:44:58.318Z,51.35
2023-04-03T19:47:26.304Z,50.98
2023-04-03T19:49:53.852Z,50.59
2023-04-03T19:52:21.418Z,53.00
2023-04-03T19:54:50.480Z,53.48
2023-04-03T19:57:19.297Z,52.89
2023-04-03T19:59:48.205Z,53.04
2023-04-03T20:02:16.737Z,50.85
2023-04-03T20:04:44.301Z,51.61
2023-04-03T20:07:12.601Z,51.21
2023-04-03T20:09:40.294Z,51.35
2023-04-03T20:12:09.460Z,50.74
2023-04-03T20:14:37.656Z,50.37
2023-04-03T20:17:06.602Z,50.29
2023-04-03T20:19:34.089Z,50.53
2023-04-03T20:22:01.837Z,49.66
2023-04-03T20:24:29.575Z,50.77
2023-04-03T20:26:58.539Z,49.65
2023-04-03T20:29:27.208Z,49.92
2023-04-03T20:31:55.151Z,50.34
2023-04-03T20:34:24.307Z,50.97
2023-04-03T20:36:53.023Z,51.16
2023-04-03T20:39:23.926Z,50.18
2023-04-03T20:41:51.725Z,50.94
2023-04-03T20:44:19.750Z,50.66
2023-04-03T20:46:53.011Z,50.75
2023-04-03T20:49:21.909Z,50.34
2023-04-03T20:51:51.530Z,51.41
2023-04-03T20:54:19.326Z,51.59
2023-04-03T20:56:48.193Z,51.93
2023-04-03T20:59:16.953Z,51.24
2023-04-03T21:01:44.603Z,50.70
2023-04-03T21:04:16.991Z,50.83
2023-04-03T21:07:22.680Z,51.84
2023-04-03T21:10:28.306Z,51.79
2023-04-03T21:13:33.624Z,52.03
2023-04-03T21:16:02.126Z,51.50
2023-04-03T21:18:43.993Z,51.44
2023-04-03T21:21:19.737Z,51.87
2023-04-03T21:23:48.694Z,51.72
2023-04-03T21:26:17.030Z,51.67
2023-04-03T21:28:44.773Z,51.47
2023-04-03T21:31:12.778Z,51.90
2023-04-03T21:33:42.338Z,51.97
2023-04-03T21:36:10.390Z,52.00
2023-04-03T21:38:37.947Z,53.11
2023-04-03T21:41:05.867Z,52.37
2023-04-03T21:43:33.398Z,53.30
2023-04-03T21:46:01.025Z,52.72
2023-04-03T21:48:30.491Z,52.41
2023-04-03T21:51:06.516Z,52.60
2023-04-03T21:53:35.393Z,52.74
2023-04-03T21:56:03.135Z,53.03
2023-04-03T21:58:32.244Z,52.58
2023-04-03T22:01:08.765Z,53.28
2023-04-03T22:03:36.286Z,52.65
2023-04-03T22:06:05.977Z,53.45
2023-04-03T22:08:33.610Z,53.38
2023-04-03T22:11:02.480Z,53.00
2023-04-03T22:13:30.344Z,53.85
2023-04-03T22:15:59.135Z,53.33
2023-04-03T22:18:27.115Z,52.66
2023-04-03T22:20:55.572Z,52.45
2023-04-03T22:23:24.485Z,52.73
2023-04-03T22:25:59.295Z,53.38
2023-04-03T22:28:26.998Z,52.89
2023-04-03T22:30:54.617Z,54.00
2023-04-03T22:33:22.126Z,53.19
2023-04-03T22:35:50.534Z,53.46
2023-04-03T22:38:18.648Z,52.92
2023-04-03T22:40:47.708Z,53.15
2023-04-03T22:43:15.238Z,53.40
2023-04-03T22:45:49.211Z,53.50
2023-04-03T22:48:17.382Z,52.89
2023-04-03T22:50:45.088Z,52.94
2023-04-03T22:53:12.597Z,53.82
2023-04-03T22:55:40.253Z,53.96
2023-04-03T22:58:09.146Z,53.49
2023-04-03T23:00:37.058Z,53.01
2023-04-03T23:03:04.803Z,54.35
2023-04-03T23:05:32.401Z,54.19
2023-04-03T23:07:59.998Z,53.78
2023-04-03T23:10:27.578Z,53.89
2023-04-03T23:12:55.287Z,54.19
2023-04-03T23:15:24.153Z,54.25
2023-04-03T23:17:51.895Z,54.52
2023-04-03T23:20:19.450Z,54.81
2023-04-03T23:22:47.039Z,55.06
2023-04-03T23:25:14.596Z,54.60
2023-04-03T23:27:42.167Z,54.60
2023-04-03T23:30:11.021Z,55.32
2023-04-03T23:32:39.929Z,55.00
2023-04-03T23:35:08.248Z,54.94
2023-04-03T23:37:35.885Z,55.67
2023-04-03T23:40:03.636Z,55.91
2023-04-03T23:42:31.203Z,55.53
2023-04-03T23:44:58.761Z,55.16
2023-04-03T23:47:26.331Z,55.41
2023-04-03T23:49:55.403Z,55.85
2023-04-03T23:52:22.978Z,55.76
2023-04-03T23:54:50.548Z,55.81
2023-04-03T23:57:18.069Z,55.73
2023-04-03T23:59:45.698Z,55.98
